Time;durP1;ratioP1;P1;durP2;ratioP2;P2;SDS_P1;SDS_P2;PMS_P1;PMS_P2;Temp;Humidity;BMP_temperature;BMP_pressure;BME280_temperature;BME280_humidity;BME280_pressure;Samples;Min_cycle;Max_cycle;Signal;HPM_P1;HPM_P2
2023/05/10 00:00:00;;;;;;;55.03;26.92;;;13.50;99.90;;;;;;5010242;28;20033;-74
2023/05/10 00:02:26;;;;;;;50.08;25.38;;;13.50;99.90;;;;;;5007152;28;20183;-75
2023/05/10 00:04:52;;;;;;;53.75;26.35;;;13.50;99.90;;;;;;5010866;28;20030;-74
2023/05/10 00:07:17;;;;;;;49.00;24.02;;;13.50;99.90;;;;;;5010853;28;20032;-74
2023/05/10 00:09:43;;;;;;;53.22;24.55;;;13.50;99.90;;;;;;5011389;28;20054;-74
2023/05/10 00:12:09;;;;;;;43.38;23.15;;;13.50;99.90;;;;;;5009347;28;20038;-74
2023/05/10 00:14:35;;;;;;;50.03;24.55;;;13.40;99.90;;;;;;5014019;28;20491;-74
2023/05/10 00:17:01;;;;;;;51.45;24.23;;;13.40;99.90;;;;;;5012761;28;20026;-74
2023/05/10 00:19:26;;;;;;;51.55;24.63;;;13.40;99.90;;;;;;5012713;28;20049;-74
2023/05/10 00:21:52;;;;;;;52.03;24.20;;;13.40;99.90;;;;;;5013411;28;20475;-74
2023/05/10 00:24:17;;;;;;;47.55;23.35;;;13.40;99.90;;;;;;5013397;28;20053;-74
2023/05/10 00:26:43;;;;;;;51.35;23.45;;;13.40;99.90;;;;;;5009896;28;20038;-74
2023/05/10 00:29:08;;;;;;;53.42;23.95;;;13.40;99.90;;;;;;5003856;28;20112;-75
2023/05/10 00:31:34;;;;;;;49.90;23.48;;;13.40;99.90;;;;;;5013021;28;20494;-74
2023/05/10 00:33:59;;;;;;;49.50;23.48;;;13.40;99.90;;;;;;5007610;28;20022;-75
2023/05/10 00:36:25;;;;;;;49.17;24.27;;;13.40;99.90;;;;;;5012617;28;20105;-74
2023/05/10 00:38:51;;;;;;;50.08;22.60;;;13.40;99.90;;;;;;5012614;28;20032;-74
2023/05/10 00:41:16;;;;;;;46.78;21.92;;;13.40;99.90;;;;;;5012896;28;20030;-75
2023/05/10 00:43:42;;;;;;;48.08;23.10;;;13.40;99.90;;;;;;5013485;28;20421;-73
2023/05/10 00:46:08;;;;;;;48.15;25.15;;;13.40;99.90;;;;;;5010148;28;20022;-74
2023/05/10 00:48:34;;;;;;;51.13;24.08;;;13.50;99.90;;;;;;5003750;28;20486;-74
2023/05/10 00:51:01;;;;;;;47.92;23.27;;;13.40;99.90;;;;;;5008835;28;20037;-74
2023/05/10 00:53:27;;;;;;;54.33;24.50;;;13.50;99.90;;;;;;5009981;28;20119;-75
2023/05/10 00:55:52;;;;;;;53.40;25.02;;;13.50;99.90;;;;;;5008241;28;20023;-74
2023/05/10 00:58:18;;;;;;;54.70;24.85;;;13.40;99.90;;;;;;5008033;28;20033;-74
2023/05/10 01:00:47;;;;;;;57.00;25.10;;;13.50;99.90;;;;;;5002838;28;20027;-75
2023/05/10 01:03:12;;;;;;;61.05;26.73;;;13.50;99.90;;;;;;5009659;28;20389;-74
2023/05/10 01:05:38;;;;;;;64.10;26.98;;;13.40;99.90;;;;;;5010227;28;20026;-74
2023/05/10 01:08:04;;;;;;;65.88;25.38;;;13.40;99.90;;;;;;5010379;28;20030;-76
2023/05/10 01:10:30;;;;;;;64.28;28.00;;;13.40;99.90;;;;;;5010631;28;20040;-75
2023/05/10 01:12:56;;;;;;;65.72;27.58;;;13.50;99.90;;;;;;5008626;28;20030;-74
2023/05/10 01:15:22;;;;;;;67.13;27.48;;;13.40;99.90;;;;;;5011231;28;20079;-74
2023/05/10 01:17:48;;;;;;;68.13;28.70;;;13.40;99.90;;;;;;5008623;28;20375;-75
2023/05/10 01:20:14;;;;;;;68.75;28.63;;;13.50;99.90;;;;;;5012289;28;20026;-75
2023/05/10 01:22:58;;;;;;;72.45;31.15;;;13.50;99.90;;;;;;5004117;28;20050;-75
2023/05/10 01:26:00;;;;;;;73.32;30.33;;;13.50;99.90;;;;;;5009895;28;20559;-74
2023/05/10 01:28:45;;;;;;;81.60;29.83;;;13.50;99.90;;;;;;5007424;28;20032;-75
2023/05/10 01:31:39;;;;;;;70.93;31.92;;;13.40;99.90;;;;;;5000957;28;20026;-75
2023/05/10 01:34:16;;;;;;;70.80;32.20;;;13.50;99.90;;;;;;5010153;28;20109;-75
2023/05/10 01:36:53;;;;;;;80.93;33.33;;;13.40;99.90;;;;;;5011311;28;20042;-75
2023/05/10 01:39:51;;;;;;;76.28;33.25;;;13.40;99.90;;;;;;5012150;28;20026;-75
2023/05/10 01:42:23;;;;;;;73.95;33.35;;;13.40;99.90;;;;;;5010220;28;20049;-74
2023/05/10 01:45:09;;;;;;;81.63;33.45;;;13.40;99.90;;;;;;5011072;28;20453;-74
2023/05/10 01:47:50;;;;;;;70.20;32.67;;;13.40;99.90;;;;;;5009615;28;20429;-74
2023/05/10 01:50:19;;;;;;;76.95;33.95;;;13.40;99.90;;;;;;5011637;28;20449;-74
2023/05/10 01:52:51;;;;;;;71.32;33.00;;;13.30;99.90;;;;;;4996313;28;20026;-75
2023/05/10 01:55:20;;;;;;;75.18;31.70;;;13.30;99.90;;;;;;5011573;28;20026;-74
2023/05/10 01:57:48;;;;;;;71.25;30.83;;;13.30;99.90;;;;;;5010531;28;20056;-74
2023/05/10 02:00:15;;;;;;;81.18;35.13;;;13.20;99.90;;;;;;5011647;28;20366;-74
2023/05/10 02:02:44;;;;;;;78.60;35.55;;;13.20;99.90;;;;;;5011308;28;20100;-74
2023/05/10 02:05:13;;;;;;;84.07;36.95;;;13.20;99.90;;;;;;5008530;28;20030;-75
2023/05/10 02:07:41;;;;;;;82.07;37.83;;;13.20;99.90;;;;;;5011474;28;20490;-74
2023/05/10 02:10:08;;;;;;;86.32;38.95;;;13.20;99.90;;;;;;5010043;28;20030;-75
2023/05/10 02:12:40;;;;;;;88.53;39.05;;;13.20;99.90;;;;;;5007248;28;20481;-74
2023/05/10 02:15:07;;;;;;;89.95;39.42;;;13.10;99.90;;;;;;5006357;28;20061;-75
2023/05/10 02:17:34;;;;;;;87.07;39.92;;;13.10;99.90;;;;;;5001577;28;20489;-75
2023/05/10 02:20:00;;;;;;;87.47;40.03;;;13.00;99.90;;;;;;5012101;28;20486;-74
2023/05/10 02:22:27;;;;;;;84.82;38.13;;;13.00;99.90;;;;;;5005764;28;20038;-74
2023/05/10 02:24:57;;;;;;;74.45;37.58;;;12.90;99.90;;;;;;5005111;28;20437;-75
2023/05/10 02:27:25;;;;;;;80.13;38.33;;;12.90;99.90;;;;;;5010899;28;20029;-74
2023/05/10 02:29:52;;;;;;;78.35;34.95;;;12.80;99.90;;;;;;5003477;28;20544;-74
2023/05/10 02:32:18;;;;;;;86.20;37.55;;;12.80;99.90;;;;;;5005941;28;20512;-74
2023/05/10 02:34:45;;;;;;;87.97;41.33;;;12.80;99.90;;;;;;5005484;28;20068;-74
2023/05/10 02:37:15;;;;;;;89.32;38.22;;;12.70;99.90;;;;;;5008443;28;20108;-75
2023/05/10 02:39:43;;;;;;;90.05;38.67;;;12.70;99.90;;;;;;5009381;28;20392;-74
2023/05/10 02:42:18;;;;;;;80.85;38.30;;;12.70;99.90;;;;;;5010932;28;20381;-74
2023/05/10 02:44:47;;;;;;;93.28;40.30;;;12.80;99.90;;;;;;5005609;28;20034;-75
2023/05/10 02:47:13;;;;;;;93.95;38.42;;;12.70;99.90;;;;;;5012779;28;20576;-75
2023/05/10 02:49:38;;;;;;;89.53;38.60;;;12.80;99.90;;;;;;5010270;28;20312;-74
2023/05/10 02:52:09;;;;;;;90.18;39.75;;;12.80;99.90;;;;;;5010430;28;20105;-75
2023/05/10 02:54:46;;;;;;;91.97;38.78;;;12.80;99.90;;;;;;5007384;28;20030;-74
2023/05/10 02:57:19;;;;;;;93.05;39.55;;;12.90;99.90;;;;;;5010754;28;20485;-74
2023/05/10 02:59:45;;;;;;;97.30;37.45;;;12.90;99.90;;;;;;5010840;28;20026;-74
2023/05/10 03:02:12;;;;;;;89.88;38.55;;;12.90;99.90;;;;;;5010652;28;20417;-74
2023/05/10 03:04:38;;;;;;;90.13;39.38;;;12.90;99.90;;;;;;5009693;28;20053;-74
2023/05/10 03:07:04;;;;;;;85.90;36.95;;;12.90;99.90;;;;;;5009701;28;20065;-74
2023/05/10 03:09:31;;;;;;;89.63;37.00;;;12.90;99.90;;;;;;5010288;28;20026;-74
2023/05/10 03:12:33;;;;;;;88.72;38.65;;;13.00;99.90;;;;;;5010975;28;20026;-74
2023/05/10 03:15:23;;;;;;;95.95;35.20;;;12.90;99.90;;;;;;5010310;28;20266;-74
2023/05/10 03:17:56;;;;;;;82.05;35.78;;;12.90;99.90;;;;;;5011201;28;20366;-74
2023/05/10 03:20:29;;;;;;;94.88;35.97;;;13.00;99.90;;;;;;5006530;28;20042;-73
2023/05/10 03:23:07;;;;;;;97.28;37.10;;;13.00;99.90;;;;;;5011089;28;20042;-74
2023/05/10 03:25:33;;;;;;;97.30;37.92;;;13.00;99.90;;;;;;5009007;28;20541;-74
2023/05/10 03:28:01;;;;;;;99.88;36.45;;;13.00;99.90;;;;;;5010280;28;20133;-73
2023/05/10 03:30:27;;;;;;;113.35;39.10;;;13.00;99.90;;;;;;5008313;28;20109;-74
2023/05/10 03:32:54;;;;;;;86.55;31.80;;;13.00;99.90;;;;;;5010711;28;20064;-74
2023/05/10 03:35:19;;;;;;;55.65;26.00;;;13.00;99.90;;;;;;5010699;28;20068;-73
2023/05/10 03:37:45;;;;;;;74.53;26.45;;;13.00;99.90;;;;;;5011164;28;20021;-74
2023/05/10 03:40:11;;;;;;;97.03;31.98;;;13.00;99.90;;;;;;5003386;28;20026;-74
2023/05/10 03:42:36;;;;;;;102.63;34.95;;;13.00;99.90;;;;;;5011052;28;20030;-74
2023/05/10 03:45:02;;;;;;;100.28;34.80;;;13.00;99.90;;;;;;5013792;28;20026;-74
2023/05/10 03:47:29;;;;;;;97.05;34.60;;;13.00;99.90;;;;;;5001609;28;20022;-74
2023/05/10 03:49:54;;;;;;;89.97;32.92;;;13.00;99.90;;;;;;5013431;28;20065;-74
2023/05/10 03:52:20;;;;;;;95.13;33.78;;;13.00;99.90;;;;;;5009375;28;20073;-74
2023/05/10 03:54:46;;;;;;;103.85;35.42;;;13.00;99.90;;;;;;5014501;28;20083;-73
2023/05/10 03:57:11;;;;;;;112.95;34.88;;;13.00;99.90;;;;;;5009933;28;20033;-74
2023/05/10 03:59:37;;;;;;;100.82;35.60;;;13.00;99.90;;;;;;4996525;28;20029;-73
2023/05/10 04:02:02;;;;;;;109.35;33.35;;;13.00;99.90;;;;;;5001306;28;20033;-73
2023/05/10 04:04:28;;;;;;;123.10;36.10;;;13.00;99.90;;;;;;5012572;28;20120;-73
2023/05/10 04:06:54;;;;;;;107.93;38.20;;;13.00;99.90;;;;;;5014002;28;20097;-73
2023/05/10 04:09:20;;;;;;;101.68;37.33;;;13.00;99.90;;;;;;5010977;28;20026;-75
2023/05/10 04:11:46;;;;;;;108.03;36.60;;;13.00;99.90;;;;;;5002648;28;20038;-75
2023/05/10 04:14:11;;;;;;;111.75;36.97;;;13.00;99.90;;;;;;4999789;28;20457;-74
2023/05/10 04:16:37;;;;;;;111.75;39.70;;;13.00;99.90;;;;;;5000911;28;20425;-73
2023/05/10 04:19:03;;;;;;;99.55;37.05;;;13.00;99.90;;;;;;5010208;28;20100;-75
2023/05/10 04:21:29;;;;;;;114.65;38.50;;;13.00;99.90;;;;;;5003966;28;20038;-74
2023/05/10 04:23:54;;;;;;;114.65;38.45;;;13.10;99.90;;;;;;5002303;28;20524;-75
2023/05/10 04:26:20;;;;;;;109.03;40.60;;;13.00;99.90;;;;;;5011338;28;20026;-74
2023/05/10 04:28:49;;;;;;;110.50;40.83;;;13.00;99.90;;;;;;4997739;28;20018;-74
2023/05/10 04:31:18;;;;;;;124.07;43.50;;;13.00;99.90;;;;;;5002870;28;20029;-75
2023/05/10 04:33:49;;;;;;;110.47;41.78;;;13.00;99.90;;;;;;5003702;28;20084;-76
2023/05/10 04:36:15;;;;;;;107.18;43.17;;;13.00;99.90;;;;;;4991117;28;20018;-74
2023/05/10 04:38:48;;;;;;;106.93;43.25;;;13.00;99.90;;;;;;5001021;28;20192;-75
2023/05/10 04:41:13;;;;;;;;;;;13.10;99.90;;;;;;5011501;28;20098;-75
2023/05/10 04:43:39;;;;;;;102.15;39.58;;;13.00;99.90;;;;;;4997450;28;19982;-75
2023/05/10 04:46:09;;;;;;;124.72;44.42;;;13.00;99.90;;;;;;4997831;28;20065;-75
2023/05/10 04:48:37;;;;;;;106.53;41.35;;;13.00;99.90;;;;;;5016561;28;20030;-75
2023/05/10 04:51:06;;;;;;;114.38;44.30;;;13.10;99.90;;;;;;5014399;28;20105;-74
2023/05/10 04:53:35;;;;;;;118.80;45.58;;;13.10;99.90;;;;;;4997652;28;20597;-74
2023/05/10 04:56:04;;;;;;;107.10;43.33;;;13.10;99.90;;;;;;5009650;28;20058;-74
2023/05/10 04:58:34;;;;;;;110.38;43.00;;;13.10;99.90;;;;;;5016963;28;20064;-74
2023/05/10 05:01:12;;;;;;;105.05;42.80;;;13.10;99.90;;;;;;5009861;28;20112;-75
2023/05/10 05:03:38;;;;;;;114.80;45.58;;;13.10;99.90;;;;;;5004070;28;20113;-75
2023/05/10 05:06:04;;;;;;;101.75;43.28;;;13.10;99.90;;;;;;4998963;28;20022;-75
2023/05/10 05:08:33;;;;;;;104.13;43.35;;;13.20;99.90;;;;;;4999237;28;20088;-76
2023/05/10 05:10:59;;;;;;;97.85;41.63;;;13.20;99.90;;;;;;4995472;28;20094;-75
2023/05/10 05:13:25;;;;;;;98.90;43.17;;;13.30;99.90;;;;;;4999973;28;20148;-75
2023/05/10 05:15:50;;;;;;;105.28;44.63;;;13.30;99.90;;;;;;5011619;28;20045;-74
2023/05/10 05:18:16;;;;;;;106.35;44.70;;;13.40;99.90;;;;;;5004939;28;20033;-75
2023/05/10 05:20:41;;;;;;;105.95;44.65;;;13.40;99.90;;;;;;5013248;28;20042;-75
2023/05/10 05:23:07;;;;;;;95.70;43.10;;;13.50;99.90;;;;;;4998790;28;20033;-75
2023/05/10 05:25:33;;;;;;;99.82;42.70;;;13.50;99.90;;;;;;5014975;28;20554;-74
2023/05/10 05:27:58;;;;;;;97.80;41.53;;;13.60;99.90;;;;;;4995792;28;20022;-75
2023/05/10 05:30:24;;;;;;;90.45;40.92;;;13.60;99.90;;;;;;5013053;28;20101;-75
2023/05/10 05:32:49;;;;;;;103.68;47.08;;;13.60;99.90;;;;;;4995365;28;20030;-75
2023/05/10 05:35:15;;;;;;;84.60;38.95;;;13.60;99.90;;;;;;4998151;28;20492;-74
2023/05/10 05:37:41;;;;;;;102.00;45.15;;;13.60;99.90;;;;;;5004327;28;20431;-75
2023/05/10 05:40:07;;;;;;;98.50;42.95;;;13.60;99.90;;;;;;5000123;28;20124;-75
2023/05/10 05:42:33;;;;;;;93.90;42.88;;;13.60;99.90;;;;;;4993486;28;20478;-75
2023/05/10 05:44:58;;;;;;;97.85;42.13;;;13.70;99.90;;;;;;5003949;28;20101;-75
2023/05/10 05:47:24;;;;;;;91.18;40.13;;;13.70;99.90;;;;;;5011736;28;20026;-74
2023/05/10 05:49:50;;;;;;;100.20;40.50;;;13.80;99.90;;;;;;5011529;28;20109;-75
2023/05/10 05:52:15;;;;;;;91.45;40.50;;;13.90;99.90;;;;;;5012782;28;20561;-74
2023/05/10 05:54:41;;;;;;;88.75;38.58;;;13.90;99.90;;;;;;5008269;28;20109;-75
2023/05/10 05:57:07;;;;;;;83.57;35.88;;;13.90;99.90;;;;;;5011448;28;20026;-75
2023/05/10 05:59:33;;;;;;;88.15;37.63;;;13.90;99.90;;;;;;5010502;28;20033;-75
2023/05/10 06:01:58;;;;;;;84.72;35.83;;;14.00;99.90;;;;;;5010819;28;20470;-75
2023/05/10 06:04:24;;;;;;;85.53;36.03;;;14.00;99.90;;;;;;5005318;28;20116;-75
2023/05/10 06:06:49;;;;;;;83.88;35.05;;;14.10;99.90;;;;;;5009555;28;20026;-75
2023/05/10 06:09:15;;;;;;;78.30;32.33;;;14.20;99.90;;;;;;5010769;28;20128;-76
2023/05/10 06:11:41;;;;;;;83.00;34.53;;;14.20;99.90;;;;;;5011638;28;20030;-75
2023/05/10 06:14:07;;;;;;;85.38;35.15;;;14.20;99.90;;;;;;4997111;28;20036;-75
2023/05/10 06:16:34;;;;;;;83.43;34.65;;;14.10;99.90;;;;;;4998084;28;20374;-73
2023/05/10 06:18:59;;;;;;;87.03;35.22;;;14.00;99.90;;;;;;5004313;28;20056;-73
2023/05/10 06:21:25;;;;;;;88.22;39.20;;;14.00;99.90;;;;;;5011331;28;20026;-73
2023/05/10 06:23:51;;;;;;;83.57;38.10;;;13.90;99.90;;;;;;5008498;28;20076;-73
2023/05/10 06:26:16;;;;;;;81.13;36.80;;;13.80;99.90;;;;;;5011505;28;20037;-73
2023/05/10 06:28:42;;;;;;;75.95;34.13;;;13.70;99.90;;;;;;5005679;28;20060;-73
2023/05/10 06:31:08;;;;;;;81.03;35.00;;;13.70;99.90;;;;;;4998700;28;20022;-73
2023/05/10 06:33:33;;;;;;;90.93;36.30;;;13.70;99.90;;;;;;5003473;28;20026;-74
2023/05/10 06:35:59;;;;;;;72.07;30.95;;;13.70;99.90;;;;;;5004826;28;20026;-74
2023/05/10 06:38:25;;;;;;;72.38;31.52;;;13.70;99.90;;;;;;5010677;28;20037;-74
2023/05/10 06:40:51;;;;;;;89.50;35.80;;;13.60;99.90;;;;;;5011586;28;20487;-73
2023/05/10 06:43:16;;;;;;;89.32;35.67;;;13.60;99.90;;;;;;5010056;28;20171;-74
2023/05/10 06:45:42;;;;;;;77.50;33.55;;;13.60;99.90;;;;;;4993452;28;20108;-73
2023/05/10 06:48:08;;;;;;;79.55;34.75;;;13.60;99.90;;;;;;5010321;28;20026;-73
2023/05/10 06:50:33;;;;;;;79.55;33.38;;;13.60;99.90;;;;;;5010084;28;20474;-74
2023/05/10 06:53:00;;;;;;;75.70;35.25;;;13.60;99.90;;;;;;5023021;28;20030;-73
2023/05/10 06:55:26;;;;;;;82.15;36.28;;;13.60;99.90;;;;;;5010628;28;20026;-73
2023/05/10 06:57:52;;;;;;;81.63;34.97;;;13.60;99.90;;;;;;5005443;28;20076;-73
2023/05/10 07:00:18;;;;;;;88.20;35.97;;;13.60;99.90;;;;;;4998425;28;20037;-73
2023/05/10 07:02:44;;;;;;;79.15;33.67;;;13.60;99.90;;;;;;5003407;28;20105;-73
2023/05/10 07:05:10;;;;;;;71.68;33.80;;;13.60;99.90;;;;;;5019218;28;20133;-74
2023/05/10 07:07:35;;;;;;;79.15;35.72;;;13.60;99.90;;;;;;5009539;28;20041;-74
2023/05/10 07:10:01;;;;;;;79.68;35.45;;;13.70;99.90;;;;;;5009680;28;20406;-74
2023/05/10 07:12:27;;;;;;;79.03;36.65;;;13.70;99.90;;;;;;5006705;28;20030;-73
2023/05/10 07:14:52;;;;;;;73.35;33.55;;;13.70;99.90;;;;;;5009769;28;20017;-73
2023/05/10 07:17:18;;;;;;;79.68;35.22;;;13.70;99.90;;;;;;5012790;28;20026;-73
2023/05/10 07:19:44;;;;;;;83.95;37.25;;;13.70;99.90;;;;;;5004496;28;20042;-75
2023/05/10 07:22:09;;;;;;;78.93;36.22;;;13.70;99.90;;;;;;5010046;28;20128;-74
2023/05/10 07:24:35;;;;;;;78.28;35.42;;;13.70;99.90;;;;;;5006519;28;20112;-75
2023/05/10 07:27:01;;;;;;;75.85;36.70;;;13.70;99.90;;;;;;5011207;28;20107;-74
2023/05/10 07:29:26;;;;;;;82.63;36.13;;;13.80;99.90;;;;;;5003977;28;20080;-74
2023/05/10 07:31:52;;;;;;;76.78;35.88;;;13.70;99.90;;;;;;4986192;28;20029;-75
2023/05/10 07:34:18;;;;;;;74.55;36.38;;;13.80;99.90;;;;;;5006911;28;20053;-75
2023/05/10 07:36:44;;;;;;;79.13;36.78;;;13.80;99.90;;;;;;5015048;28;20413;-75
2023/05/10 07:39:10;;;;;;;81.22;38.22;;;13.90;99.90;;;;;;4998825;28;20026;-74
2023/05/10 07:41:37;;;;;;;83.63;37.55;;;13.90;99.90;;;;;;4997538;28;20034;-74
2023/05/10 07:44:03;;;;;;;86.57;38.80;;;13.90;99.90;;;;;;5008688;28;20045;-74
2023/05/10 07:46:29;;;;;;;83.85;38.90;;;14.00;99.90;;;;;;5013439;28;20022;-75
2023/05/10 07:48:55;;;;;;;86.80;40.95;;;14.20;99.90;;;;;;5016999;28;20032;-74
2023/05/10 07:51:21;;;;;;;96.80;43.47;;;14.20;99.90;;;;;;5010137;28;20022;-74
2023/05/10 07:53:46;;;;;;;93.60;41.15;;;14.20;99.90;;;;;;5017420;28;20030;-74
2023/05/10 07:56:29;;;;;;;91.07;41.63;;;14.20;99.90;;;;;;5014947;28;20034;-74
2023/05/10 07:58:56;;;;;;;95.78;43.25;;;14.20;99.90;;;;;;4990764;28;20034;-75
2023/05/10 08:01:22;;;;;;;85.80;40.97;;;14.20;99.90;;;;;;4999716;28;20026;-75
2023/05/10 08:03:48;;;;;;;86.72;40.75;;;14.30;99.90;;;;;;5008806;28;20038;-74
2023/05/10 08:06:15;;;;;;;81.13;42.05;;;14.40;99.90;;;;;;5018350;28;20029;-74
2023/05/10 08:08:41;;;;;;;77.57;41.45;;;14.60;99.90;;;;;;5020717;28;20045;-75
2023/05/10 08:11:07;;;;;;;80.93;40.53;;;14.70;99.90;;;;;;4999729;28;20025;-75
2023/05/10 08:13:33;;;;;;;73.63;37.35;;;14.90;99.90;;;;;;5016832;28;20033;-75
2023/05/10 08:15:58;;;;;;;71.72;37.38;;;14.90;99.90;;;;;;5015059;28;20040;-75
2023/05/10 08:18:24;;;;;;;73.68;36.40;;;14.90;99.90;;;;;;5016173;28;20046;-75
2023/05/10 08:20:50;;;;;;;67.60;36.38;;;14.80;99.90;;;;;;5002740;28;20026;-75
2023/05/10 08:23:15;;;;;;;75.47;36.13;;;14.60;99.90;;;;;;5013960;28;20069;-76
2023/05/10 08:25:41;;;;;;;78.65;39.03;;;14.60;99.90;;;;;;5011551;28;20045;-75
2023/05/10 08:28:09;;;;;;;81.57;38.47;;;14.50;99.90;;;;;;5015136;28;20036;-75
2023/05/10 08:30:35;;;;;;;81.75;37.63;;;14.50;99.90;;;;;;5006619;28;20027;-76
2023/05/10 08:33:00;;;;;;;71.75;36.05;;;14.40;99.90;;;;;;4995794;28;20437;-75
2023/05/10 08:35:26;;;;;;;68.68;34.78;;;14.30;99.90;;;;;;5009136;28;20056;-76
2023/05/10 08:37:51;;;;;;;62.92;31.13;;;14.20;99.90;;;;;;5013390;28;20026;-77
2023/05/10 08:40:22;;;;;;;69.95;32.72;;;14.10;99.90;;;;;;5012466;28;20061;-75
2023/05/10 08:43:15;;;;;;;62.78;29.95;;;14.00;99.90;;;;;;5012664;28;20041;-74
2023/05/10 08:45:42;;;;;;;55.20;27.10;;;13.90;99.90;;;;;;4988246;28;20049;-74
2023/05/10 08:48:10;;;;;;;59.58;27.52;;;13.90;99.90;;;;;;4991407;28;20044;-74
2023/05/10 08:50:36;;;;;;;56.90;27.27;;;13.90;99.90;;;;;;5011199;28;20076;-74
2023/05/10 08:53:06;;;;;;;50.45;25.83;;;13.90;99.90;;;;;;5013699;28;20398;-76
2023/05/10 08:55:37;;;;;;;55.25;25.90;;;14.00;99.90;;;;;;5012488;28;20022;-75
2023/05/10 08:58:04;;;;;;;48.95;24.80;;;13.90;99.90;;;;;;5012854;28;20034;-75
2023/05/10 09:00:30;;;;;;;47.72;24.52;;;14.00;99.90;;;;;;5013740;28;20021;-74
2023/05/10 09:02:57;;;;;;;42.20;22.15;;;14.10;99.90;;;;;;5012147;28;20567;-75
2023/05/10 09:05:23;;;;;;;48.20;24.08;;;14.10;99.90;;;;;;5012135;28;20182;-75
2023/05/10 09:07:48;;;;;;;45.35;24.00;;;14.20;99.90;;;;;;5012586;28;20050;-75
2023/05/10 09:10:15;;;;;;;48.92;25.15;;;14.30;99.90;;;;;;4997955;28;20023;-75
2023/05/10 09:12:40;;;;;;;45.15;23.52;;;14.40;99.90;;;;;;4995308;28;20034;-75
2023/05/10 09:15:11;;;;;;;38.03;21.38;;;14.50;99.90;;;;;;5010784;28;20017;-75
2023/05/10 09:17:40;;;;;;;36.80;22.05;;;14.60;99.90;;;;;;5013126;28;20124;-75
2023/05/10 09:20:06;;;;;;;39.90;20.73;;;14.50;99.90;;;;;;5001331;28;20034;-75
2023/05/10 09:22:33;;;;;;;34.65;19.27;;;14.60;99.90;;;;;;5009252;28;20496;-75
2023/05/10 09:25:16;;;;;;;25.80;14.35;;;14.60;99.90;;;;;;4992310;28;20397;-75
2023/05/10 09:27:46;;;;;;;25.02;12.90;;;14.70;99.90;;;;;;4988737;28;20022;-75
2023/05/10 09:30:16;;;;;;;20.65;11.40;;;14.70;99.90;;;;;;4982800;28;20161;-75
2023/05/10 09:32:45;;;;;;;22.60;12.10;;;14.90;99.90;;;;;;5012791;28;20026;-76
2023/05/10 09:35:15;;;;;;;21.77;11.63;;;15.10;99.90;;;;;;5002889;28;20033;-76
2023/05/10 09:37:42;;;;;;;20.73;11.57;;;15.20;99.90;;;;;;5007165;28;20026;-75
2023/05/10 09:40:12;;;;;;;18.98;11.45;;;15.40;99.90;;;;;;5011880;28;20477;-76
2023/05/10 09:42:38;;;;;;;19.50;10.73;;;15.50;99.90;;;;;;5000644;28;20073;-75
2023/05/10 09:45:05;;;;;;;18.67;10.07;;;15.60;99.90;;;;;;5005399;28;20441;-74
2023/05/10 09:47:37;;;;;;;16.52;10.48;;;15.80;99.90;;;;;;5010385;28;20401;-75
2023/05/10 09:50:04;;;;;;;13.73;9.07;;;15.90;99.90;;;;;;4984118;28;20022;-75
2023/05/10 09:52:57;;;;;;;17.38;9.05;;;15.90;99.90;;;;;;5009403;28;20030;-75
2023/05/10 09:55:38;;;;;;;14.70;8.60;;;15.80;99.90;;;;;;5001444;28;20034;-74
2023/05/10 09:58:06;;;;;;;16.13;8.82;;;15.80;99.90;;;;;;5011460;28;20018;-75
2023/05/10 10:00:40;;;;;;;15.52;8.98;;;15.60;99.90;;;;;;5008103;28;20121;-74
2023/05/10 10:03:11;;;;;;;14.18;9.27;;;15.70;99.90;;;;;;5007154;28;20078;-75
2023/05/10 10:05:40;;;;;;;14.40;8.93;;;15.80;99.90;;;;;;4993426;28;20490;-74
2023/05/10 10:08:06;;;;;;;16.55;10.38;;;16.10;99.90;;;;;;5005985;28;20026;-75
2023/05/10 10:10:33;;;;;;;15.60;10.30;;;16.50;99.90;;;;;;5008911;28;20162;-75
2023/05/10 10:12:59;;;;;;;11.60;8.35;;;16.90;99.90;;;;;;5002005;28;20026;-75
2023/05/10 10:15:26;;;;;;;14.23;9.57;;;17.10;99.90;;;;;;5007416;28;20030;-75
2023/05/10 10:17:52;;;;;;;13.40;8.88;;;17.30;99.90;;;;;;5009281;28;20067;-74
2023/05/10 10:20:20;;;;;;;11.02;7.50;;;17.50;99.90;;;;;;4997688;28;20041;-75
2023/05/10 10:22:46;;;;;;;12.88;8.32;;;17.60;99.90;;;;;;5010080;28;20014;-75
2023/05/10 10:25:14;;;;;;;12.32;8.45;;;17.70;99.90;;;;;;4998336;28;20065;-74
2023/05/10 10:27:51;;;;;;;10.07;7.70;;;17.60;99.90;;;;;;5001760;28;20022;-73
2023/05/10 10:30:28;;;;;;;9.35;6.78;;;17.60;99.90;;;;;;5001100;28;20076;-75
2023/05/10 10:33:30;;;;;;;10.57;5.40;;;17.50;99.90;;;;;;5010835;28;20024;-75
2023/05/10 10:35:58;;;;;;;;;;;17.50;99.90;;;;;;5009764;28;20089;-75
2023/05/10 10:38:24;;;;;;;10.00;6.45;;;17.40;99.90;;;;;;5008212;28;20298;-74
2023/05/10 10:41:09;;;;;;;11.20;6.30;;;17.30;99.90;;;;;;5006852;28;20094;-75
2023/05/10 10:43:35;;;;;;;9.20;6.30;;;17.40;99.90;;;;;;5009822;28;20061;-74
2023/05/10 10:46:14;;;;;;;9.55;6.65;;;17.50;99.90;;;;;;5011836;28;20030;-74
2023/05/10 10:49:10;;;;;;;9.55;6.18;;;17.80;99.90;;;;;;4999289;28;20101;-74
2023/05/10 10:51:39;;;;;;;9.50;6.80;;;17.90;99.90;;;;;;5000523;28;20079;-75
2023/05/10 10:54:11;;;;;;;10.68;7.25;;;18.00;99.90;;;;;;5001637;28;20100;-74
2023/05/10 10:56:37;;;;;;;8.63;6.15;;;18.00;99.90;;;;;;5011594;28;20442;-74
2023/05/10 10:59:02;;;;;;;7.65;5.53;;;18.10;99.90;;;;;;5007564;28;20068;-74
2023/05/10 11:01:34;;;;;;;7.80;5.43;;;18.20;99.90;;;;;;5009254;28;20397;-74
2023/05/10 11:04:00;;;;;;;;;;;18.30;99.90;;;;;;5009993;28;20061;-76
2023/05/10 11:06:31;;;;;;;7.40;4.93;;;18.20;99.90;;;;;;5006996;28;20365;-75
2023/05/10 11:08:57;;;;;;;9.15;5.57;;;18.20;99.90;;;;;;4995040;28;20050;-75
2023/05/10 11:11:23;;;;;;;9.18;5.60;;;18.10;99.90;;;;;;5010096;28;20025;-74
2023/05/10 11:13:49;;;;;;;9.77;4.63;;;18.20;99.90;;;;;;5006591;28;20041;-74
2023/05/10 11:16:20;;;;;;;9.73;5.45;;;18.30;99.90;;;;;;5004170;28;20382;-74
2023/05/10 11:19:10;;;;;;;7.95;5.35;;;18.40;99.90;;;;;;5003929;28;20053;-74
2023/05/10 11:21:51;;;;;;;5.93;4.47;;;18.50;99.90;;;;;;4987323;28;20031;-73
2023/05/10 11:24:37;;;;;;;7.50;4.33;;;18.60;99.90;;;;;;5008370;28;20075;-74
2023/05/10 11:27:03;;;;;;;7.30;4.68;;;18.50;99.90;;;;;;5003536;28;20026;-74
2023/05/10 11:29:29;;;;;;;8.30;4.85;;;18.50;99.90;;;;;;5000104;28;20394;-74
2023/05/10 11:31:58;;;;;;;6.55;4.35;;;18.30;99.90;;;;;;5010229;28;20033;-73
2023/05/10 11:34:30;;;;;;;6.80;3.97;;;18.30;99.90;;;;;;5010100;28;20474;-75
2023/05/10 11:36:56;;;;;;;9.85;5.10;;;18.30;99.90;;;;;;5011026;28;20386;-74
2023/05/10 11:39:27;;;;;;;7.35;4.50;;;18.20;99.90;;;;;;5008874;28;20112;-74
2023/05/10 11:41:53;;;;;;;6.45;4.47;;;18.30;99.90;;;;;;5008584;28;20361;-74
2023/05/10 11:44:18;;;;;;;5.95;4.22;;;18.20;99.90;;;;;;5009101;28;20064;-74
2023/05/10 11:46:44;;;;;;;5.80;4.00;;;18.20;99.90;;;;;;4991326;28;20069;-74
2023/05/10 11:49:10;;;;;;;6.63;4.28;;;18.30;99.90;;;;;;4990835;28;20034;-74
2023/05/10 11:51:36;;;;;;;7.82;4.60;;;18.20;99.90;;;;;;5006391;28;20026;-74
2023/05/10 11:54:06;;;;;;;4.55;3.75;;;18.20;99.90;;;;;;4993454;28;20026;-74
2023/05/10 11:56:32;;;;;;;7.38;4.30;;;18.20;99.90;;;;;;5010282;28;20026;-74
2023/05/10 11:58:59;;;;;;;7.70;4.22;;;18.20;99.90;;;;;;5009071;28;20440;-73
2023/05/10 12:01:26;;;;;;;6.68;4.50;;;18.30;99.90;;;;;;5009358;28;20108;-74
2023/05/10 12:03:57;;;;;;;7.00;4.50;;;18.40;99.90;;;;;;5013579;28;20458;-74
2023/05/10 12:06:31;;;;;;;5.82;3.80;;;18.40;99.90;;;;;;5014039;28;20037;-74
2023/05/10 12:08:57;;;;;;;5.15;3.97;;;18.50;99.90;;;;;;5010368;28;20124;-74
2023/05/10 12:11:27;;;;;;;6.97;4.50;;;18.60;99.90;;;;;;5013629;28;20048;-74
2023/05/10 12:13:54;;;;;;;7.82;4.75;;;18.60;99.90;;;;;;5014513;28;20057;-74
2023/05/10 12:16:21;;;;;;;7.00;5.00;;;18.20;99.90;;;;;;5012747;28;20528;-74
2023/05/10 12:18:53;;;;;;;6.40;4.85;;;18.00;99.90;;;;;;5014125;28;20581;-74
2023/05/10 12:21:20;;;;;;;6.60;4.90;;;17.70;99.90;;;;;;5013297;28;20379;-74
2023/05/10 12:23:48;;;;;;;8.18;6.05;;;17.40;99.90;;;;;;5007288;28;20041;-74
2023/05/10 12:26:14;;;;;;;8.30;6.38;;;17.20;99.90;;;;;;5013803;28;20041;-74
2023/05/10 12:28:40;;;;;;;6.45;5.32;;;16.90;99.90;;;;;;5013220;28;20529;-74
2023/05/10 12:31:06;;;;;;;10.20;6.20;;;16.80;99.90;;;;;;5013483;28;20113;-74
2023/05/10 12:33:43;;;;;;;9.52;6.47;;;16.70;99.90;;;;;;5013453;28;20032;-73
2023/05/10 12:36:10;;;;;;;9.63;6.57;;;16.60;99.90;;;;;;5012704;28;20046;-74